sensor_id;sensor_type;location;lat;lon;timestamp;pressure;altitude;pressure_sealevel;temperature;humidity
65666;BME280;52365;47.464;18.976;2024-03-25T00:00:05;98807.81;;;6.85;62.26
65666;BME280;52365;47.464;18.976;2024-03-25T00:00:31;98800.19;;;6.92;62.27
65666;BME280;52365;47.464;18.976;2024-03-25T00:00:52;98800.50;;;6.94;62.08
65666;BME280;52365;47.464;18.976;2024-03-25T00:01:13;98807.62;;;6.97;61.91
65666;BME280;52365;47.464;18.976;2024-03-25T00:01:34;98803.78;;;6.98;61.89
65666;BME280;52365;47.464;18.976;2024-03-25T00:01:55;98799.47;;;6.92;61.91
65666;BME280;52365;47.464;18.976;2024-03-25T00:02:11;98801.28;;;6.86;61.98
65666;BME280;52365;47.464;18.976;2024-03-25T00:02:32;98808.38;;;6.89;61.99
65666;BME280;52365;47.464;18.976;2024-03-25T00:02:52;98797.84;;;6.94;62.02
65666;BME280;52365;47.464;18.976;2024-03-25T00:03:14;98802.59;;;6.90;62.01
65666;BME280;52365;47.464;18.976;2024-03-25T00:03:35;98809.28;;;6.95;61.93
65666;BME280;52365;47.464;18.976;2024-03-25T00:03:56;98806.59;;;6.95;61.85
65666;BME280;52365;47.464;18.976;2024-03-25T00:04:17;98803.63;;;6.93;61.81
65666;BME280;52365;47.464;18.976;2024-03-25T00:04:38;98808.97;;;6.93;61.82
65666;BME280;52365;47.464;18.976;2024-03-25T00:04:59;98803.03;;;6.89;61.86
65666;BME280;52365;47.464;18.976;2024-03-25T00:05:20;98811.41;;;6.81;61.96
65666;BME280;52365;47.464;18.976;2024-03-25T00:05:43;98806.06;;;6.81;62.11
65666;BME280;52365;47.464;18.976;2024-03-25T00:06:04;98801.28;;;6.86;62.11
65666;BME280;52365;47.464;18.976;2024-03-25T00:06:25;98807.81;;;6.85;62.14
65666;BME280;52365;47.464;18.976;2024-03-25T00:06:46;98806.63;;;6.86;62.17
65666;BME280;52365;47.464;18.976;2024-03-25T00:07:07;98805.56;;;6.92;62.02
65666;BME280;52365;47.464;18.976;2024-03-25T00:07:28;98803.81;;;6.89;61.99
65666;BME280;52365;47.464;18.976;2024-03-25T00:07:49;98803.97;;;6.86;62.05
65666;BME280;52365;47.464;18.976;2024-03-25T00:08:10;98809.59;;;6.88;62.09
65666;BME280;52365;47.464;18.976;2024-03-25T00:08:32;98800.66;;;6.91;61.92
65666;BME280;52365;47.464;18.976;2024-03-25T00:08:53;98801.41;;;6.91;61.86
65666;BME280;52365;47.464;18.976;2024-03-25T00:09:13;98806.31;;;6.84;61.96
65666;BME280;52365;47.464;18.976;2024-03-25T00:09:34;98814.66;;;6.86;62.05
65666;BME280;52365;47.464;18.976;2024-03-25T00:09:55;98804.84;;;6.82;62.16
65666;BME280;52365;47.464;18.976;2024-03-25T00:10:17;98808.25;;;6.83;62.17
65666;BME280;52365;47.464;18.976;2024-03-25T00:10:38;98808.41;;;6.79;62.07
65666;BME280;52365;47.464;18.976;2024-03-25T00:10:59;98807.25;;;6.71;62.40
65666;BME280;52365;47.464;18.976;2024-03-25T00:11:15;98804.87;;;6.73;62.38
65666;BME280;52365;47.464;18.976;2024-03-25T00:11:36;98807.84;;;6.75;62.32
65666;BME280;52365;47.464;18.976;2024-03-25T00:11:57;98801.59;;;6.78;62.32
65666;BME280;52365;47.464;18.976;2024-03-25T00:12:18;98804.72;;;6.77;62.26
65666;BME280;52365;47.464;18.976;2024-03-25T00:12:39;98801.00;;;6.74;62.24
65666;BME280;52365;47.464;18.976;2024-03-25T00:13:00;98799.53;;;6.73;62.16
65666;BME280;52365;47.464;18.976;2024-03-25T00:13:21;98798.78;;;6.73;62.21
65666;BME280;52365;47.464;18.976;2024-03-25T00:13:42;98802.19;;;6.73;62.23
65666;BME280;52365;47.464;18.976;2024-03-25T00:14:06;98800.41;;;6.70;62.30
65666;BME280;52365;47.464;18.976;2024-03-25T00:14:27;98793.00;;;6.65;62.43
65666;BME280;52365;47.464;18.976;2024-03-25T00:14:42;98802.97;;;6.65;62.45
65666;BME280;52365;47.464;18.976;2024-03-25T00:15:04;98799.22;;;6.62;62.48
65666;BME280;52365;47.464;18.976;2024-03-25T00:15:25;98800.56;;;6.67;62.48
65666;BME280;52365;47.464;18.976;2024-03-25T00:15:46;98798.66;;;6.67;62.44
65666;BME280;52365;47.464;18.976;2024-03-25T00:16:07;98799.22;;;6.71;62.44
65666;BME280;52365;47.464;18.976;2024-03-25T00:16:28;98793.84;;;6.71;62.39
65666;BME280;52365;47.464;18.976;2024-03-25T00:16:50;98799.22;;;6.71;62.33
65666;BME280;52365;47.464;18.976;2024-03-25T00:17:11;98803.41;;;6.72;62.30
65666;BME280;52365;47.464;18.976;2024-03-25T00:17:32;98804.87;;;6.73;62.22
65666;BME280;52365;47.464;18.976;2024-03-25T00:17:48;98804.13;;;6.73;62.18
65666;BME280;52365;47.464;18.976;2024-03-25T00:18:08;98800.41;;;6.70;62.18
65666;BME280;52365;47.464;18.976;2024-03-25T00:18:29;98792.84;;;6.69;62.18
65666;BME280;52365;47.464;18.976;2024-03-25T00:18:50;98795.06;;;6.70;62.21
65666;BME280;52365;47.464;18.976;2024-03-25T00:19:12;98795.06;;;6.70;62.26
65666;BME280;52365;47.464;18.976;2024-03-25T00:19:33;98796.53;;;6.71;62.22
65666;BME280;52365;47.464;18.976;2024-03-25T00:19:54;98796.84;;;6.73;62.16
65666;BME280;52365;47.464;18.976;2024-03-25T00:20:15;98795.06;;;6.70;62.15
65666;BME280;52365;47.464;18.976;2024-03-25T00:20:36;98796.53;;;6.71;62.20
65666;BME280;52365;47.464;18.976;2024-03-25T00:20:57;98802.34;;;6.70;62.20
65666;BME280;52365;47.464;18.976;2024-03-25T00:21:21;98802.50;;;6.66;62.23
65666;BME280;52365;47.464;18.976;2024-03-25T00:21:43;98799.22;;;6.62;62.47
65666;BME280;52365;47.464;18.976;2024-03-25T00:22:05;98794.94;;;6.65;62.38
65666;BME280;52365;47.464;18.976;2024-03-25T00:22:26;98800.31;;;6.55;62.56
65666;BME280;52365;47.464;18.976;2024-03-25T00:22:47;98798.66;;;6.58;62.57
65666;BME280;52365;47.464;18.976;2024-03-25T00:23:08;98805.19;;;6.57;62.57
65666;BME280;52365;47.464;18.976;2024-03-25T00:23:29;98792.69;;;6.54;62.61
65666;BME280;52365;47.464;18.976;2024-03-25T00:23:50;98791.38;;;6.49;62.68
65666;BME280;52365;47.464;18.976;2024-03-25T00:24:11;98804.31;;;6.51;62.75
65666;BME280;52365;47.464;18.976;2024-03-25T00:24:32;98802.38;;;6.51;62.71
65666;BME280;52365;47.464;18.976;2024-03-25T00:24:53;98803.72;;;6.47;62.67
65666;BME280;52365;47.464;18.976;2024-03-25T00:25:14;98796.28;;;6.51;62.68
65666;BME280;52365;47.464;18.976;2024-03-25T00:25:37;98806.97;;;6.60;62.49
65666;BME280;52365;47.464;18.976;2024-03-25T00:25:58;98796.56;;;6.62;62.29
65666;BME280;52365;47.464;18.976;2024-03-25T00:26:19;98805.91;;;6.67;62.16
65666;BME280;52365;47.464;18.976;2024-03-25T00:26:40;98796.72;;;6.68;62.17
65666;BME280;52365;47.464;18.976;2024-03-25T00:27:01;98793.00;;;6.65;62.18
65666;BME280;52365;47.464;18.976;2024-03-25T00:27:22;98799.09;;;6.66;62.10
65666;BME280;52365;47.464;18.976;2024-03-25T00:27:43;98795.69;;;6.56;62.16
65666;BME280;52365;47.464;18.976;2024-03-25T00:28:04;98793.03;;;6.47;62.45
65666;BME280;52365;47.464;18.976;2024-03-25T00:28:25;98798.97;;;6.51;62.40
65666;BME280;52365;47.464;18.976;2024-03-25T00:28:46;98791.09;;;6.47;62.41
65666;BME280;52365;47.464;18.976;2024-03-25T00:29:07;98793.03;;;6.47;62.57
65666;BME280;52365;47.464;18.976;2024-03-25T00:29:28;98790.97;;;6.42;62.76
65666;BME280;52365;47.464;18.976;2024-03-25T00:29:49;98789.75;;;6.43;62.77
65666;BME280;52365;47.464;18.976;2024-03-25T00:30:11;98798.66;;;6.49;62.77
65666;BME280;52365;47.464;18.976;2024-03-25T00:30:32;98797.50;;;6.50;62.61
65666;BME280;52365;47.464;18.976;2024-03-25T00:30:53;98792.13;;;6.50;62.62
65666;BME280;52365;47.464;18.976;2024-03-25T00:31:14;98793.91;;;6.53;62.54
65666;BME280;52365;47.464;18.976;2024-03-25T00:31:35;98791.97;;;6.53;62.45
65666;BME280;52365;47.464;18.976;2024-03-25T00:31:56;98801.94;;;6.53;62.55
65666;BME280;52365;47.464;18.976;2024-03-25T00:32:17;98787.50;;;6.60;62.44
65666;BME280;52365;47.464;18.976;2024-03-25T00:32:38;98787.94;;;6.67;62.14
65666;BME280;52365;47.464;18.976;2024-03-25T00:32:59;98795.53;;;6.60;62.13
65666;BME280;52365;47.464;18.976;2024-03-25T00:33:15;98795.69;;;6.56;62.13
65666;BME280;52365;47.464;18.976;2024-03-25T00:33:37;98784.97;;;6.56;62.27
65666;BME280;52365;47.464;18.976;2024-03-25T00:33:58;98792.09;;;6.68;62.30
65666;BME280;52365;47.464;18.976;2024-03-25T00:34:14;98793.69;;;6.75;61.88
65666;BME280;52365;47.464;18.976;2024-03-25T00:34:36;98794.91;;;6.74;61.66
65666;BME280;52365;47.464;18.976;2024-03-25T00:34:57;98791.94;;;6.72;61.59
65666;BME280;52365;47.464;18.976;2024-03-25T00:35:18;98791.94;;;6.72;61.58
65666;BME280;52365;47.464;18.976;2024-03-25T00:35:39;98789.41;;;6.68;61.62
65666;BME280;52365;47.464;18.976;2024-03-25T00:35:55;98782.59;;;6.67;61.71
65666;BME280;52365;47.464;18.976;2024-03-25T00:36:16;98791.19;;;6.71;61.62
65666;BME280;52365;47.464;18.976;2024-03-25T00:36:37;98792.38;;;6.70;61.67
65666;BME280;52365;47.464;18.976;2024-03-25T00:36:59;98787.34;;;6.72;61.63
65666;BME280;52365;47.464;18.976;2024-03-25T00:37:19;98789.84;;;6.67;61.69
65666;BME280;52365;47.464;18.976;2024-03-25T00:37:40;98787.16;;;6.67;61.78
65666;BME280;52365;47.464;18.976;2024-03-25T00:38:04;98786.44;;;6.66;61.80
65666;BME280;52365;47.464;18.976;2024-03-25T00:38:25;98793.69;;;6.75;61.69
65666;BME280;52365;47.464;18.976;2024-03-25T00:38:46;98784.78;;;6.78;61.59
65666;BME280;52365;47.464;18.976;2024-03-25T00:39:07;98785.53;;;6.78;61.52
65666;BME280;52365;47.464;18.976;2024-03-25T00:39:28;98788.31;;;6.84;61.32
65666;BME280;52365;47.464;18.976;2024-03-25T00:39:50;98784.47;;;6.85;61.26
65666;BME280;52365;47.464;18.976;2024-03-25T00:40:11;98792.50;;;6.85;61.30
65666;BME280;52365;47.464;18.976;2024-03-25T00:40:32;98786.25;;;6.79;61.21
65666;BME280;52365;47.464;18.976;2024-03-25T00:40:49;98790.44;;;6.71;61.23
65666;BME280;52365;47.464;18.976;2024-03-25T00:41:10;98784.34;;;6.70;61.32
65666;BME280;52365;47.464;18.976;2024-03-25T00:41:32;98789.53;;;6.74;61.33
65666;BME280;52365;47.464;18.976;2024-03-25T00:41:53;98779.28;;;6.81;61.11
65666;BME280;52365;47.464;18.976;2024-03-25T00:42:14;98785.53;;;6.78;61.09
65666;BME280;52365;47.464;18.976;2024-03-25T00:42:35;98791.19;;;6.71;61.24
65666;BME280;52365;47.464;18.976;2024-03-25T00:42:56;98781.50;;;6.74;61.24
65666;BME280;52365;47.464;18.976;2024-03-25T00:43:17;98787.91;;;6.76;61.20
65666;BME280;52365;47.464;18.976;2024-03-25T00:43:38;98788.06;;;6.73;61.29
65666;BME280;52365;47.464;18.976;2024-03-25T00:43:54;98787.00;;;6.79;61.24
65666;BME280;52365;47.464;18.976;2024-03-25T00:44:15;98784.19;;;6.74;61.24
65666;BME280;52365;47.464;18.976;2024-03-25T00:44:36;98783.31;;;6.77;61.16
65666;BME280;52365;47.464;18.976;2024-03-25T00:44:57;98788.66;;;6.77;61.09
65666;BME280;52365;47.464;18.976;2024-03-25T00:45:18;98787.47;;;6.78;61.11
65666;BME280;52365;47.464;18.976;2024-03-25T00:45:39;98788.19;;;6.78;61.11
65666;BME280;52365;47.464;18.976;2024-03-25T00:46:00;98792.34;;;6.79;61.06
65666;BME280;52365;47.464;18.976;2024-03-25T00:46:21;98783.69;;;6.85;61.03
65666;BME280;52365;47.464;18.976;2024-03-25T00:46:42;98779.84;;;6.86;60.93
65666;BME280;52365;47.464;18.976;2024-03-25T00:47:03;98777.59;;;6.84;60.94
65666;BME280;52365;47.464;18.976;2024-03-25T00:47:24;98778.81;;;6.83;60.93
65666;BME280;52365;47.464;18.976;2024-03-25T00:47:45;98781.34;;;6.87;60.94
65666;BME280;52365;47.464;18.976;2024-03-25T00:48:06;98781.50;;;6.83;60.94
65666;BME280;52365;47.464;18.976;2024-03-25T00:48:27;98781.59;;;6.89;60.97
65666;BME280;52365;47.464;18.976;2024-03-25T00:48:48;98777.75;;;6.90;60.81
65666;BME280;52365;47.464;18.976;2024-03-25T00:49:09;98777.91;;;6.86;60.78
65666;BME280;52365;47.464;18.976;2024-03-25T00:49:30;98779.84;;;6.86;60.76
65666;BME280;52365;47.464;18.976;2024-03-25T00:49:51;98778.53;;;6.81;60.78
65666;BME280;52365;47.464;18.976;2024-03-25T00:50:12;98773.44;;;6.83;60.83
65666;BME280;52365;47.464;18.976;2024-03-25T00:50:33;98786.75;;;6.68;61.07
65666;BME280;52365;47.464;18.976;2024-03-25T00:50:54;98777.06;;;6.62;61.42
65666;BME280;52365;47.464;18.976;2024-03-25T00:51:15;98778.56;;;6.63;61.55
65666;BME280;52365;47.464;18.976;2024-03-25T00:51:36;98781.06;;;6.75;61.42
65666;BME280;52365;47.464;18.976;2024-03-25T00:51:57;98781.03;;;6.85;61.21
65666;BME280;52365;47.464;18.976;2024-03-25T00:52:18;98779.84;;;6.86;60.97
65666;BME280;52365;47.464;18.976;2024-03-25T00:52:39;98780.44;;;6.90;60.96
65666;BME280;52365;47.464;18.976;2024-03-25T00:53:00;98777.72;;;6.99;60.86
65666;BME280;52365;47.464;18.976;2024-03-25T00:53:22;98781.56;;;6.98;60.49
65666;BME280;52365;47.464;18.976;2024-03-25T00:53:43;98774.16;;;6.93;60.57
65666;BME280;52365;47.464;18.976;2024-03-25T00:54:04;98777.44;;;6.88;60.65
65666;BME280;52365;47.464;18.976;2024-03-25T00:54:25;98781.34;;;6.87;60.74
65666;BME280;52365;47.464;18.976;2024-03-25T00:54:46;98778.34;;;6.85;60.86
65666;BME280;52365;47.464;18.976;2024-03-25T00:55:07;98778.09;;;6.73;61.04
65666;BME280;52365;47.464;18.976;2024-03-25T00:55:29;98780.66;;;6.68;61.36
65666;BME280;52365;47.464;18.976;2024-03-25T00:55:50;98777.66;;;6.66;61.55
65666;BME280;52365;47.464;18.976;2024-03-25T00:56:12;98788.84;;;6.64;61.60
65666;BME280;52365;47.464;18.976;2024-03-25T00:56:33;98778.56;;;6.63;61.72
65666;BME280;52365;47.464;18.976;2024-03-25T00:56:54;98780.66;;;6.68;61.72
65666;BME280;52365;47.464;18.976;2024-03-25T00:57:15;98778.84;;;6.74;61.61
65666;BME280;52365;47.464;18.976;2024-03-25T00:57:36;98783.03;;;6.66;61.59
65666;BME280;52365;47.464;18.976;2024-03-25T00:57:57;98774.13;;;6.60;61.70
65666;BME280;52365;47.464;18.976;2024-03-25T00:58:18;98769.66;;;6.56;61.77
65666;BME280;52365;47.464;18.976;2024-03-25T00:58:39;98776.06;;;6.59;61.88
65666;BME280;52365;47.464;18.976;2024-03-25T00:59:00;98777.97;;;6.68;61.78
65666;BME280;52365;47.464;18.976;2024-03-25T00:59:26;98779.91;;;6.67;61.73
65666;BME280;52365;47.464;18.976;2024-03-25T00:59:47;98771.88;;;6.58;61.76
65666;BME280;52365;47.464;18.976;2024-03-25T01:00:08;98779.00;;;6.61;61.79
65666;BME280;52365;47.464;18.976;2024-03-25T01:00:30;98774.84;;;6.60;61.88
65666;BME280;52365;47.464;18.976;2024-03-25T01:00:50;98779.00;;;6.61;61.86
65666;BME280;52365;47.464;18.976;2024-03-25T01:01:11;98784.09;;;6.50;62.02
65666;BME280;52365;47.464;18.976;2024-03-25T01:01:33;98778.28;;;6.51;62.11
65666;BME280;52365;47.464;18.976;2024-03-25T01:01:53;98781.25;;;6.53;62.06
65666;BME280;52365;47.464;18.976;2024-03-25T01:02:15;98781.41;;;6.41;62.30
65666;BME280;52365;47.464;18.976;2024-03-25T01:02:36;98783.69;;;6.33;62.59
65666;BME280;52365;47.464;18.976;2024-03-25T01:02:57;98783.81;;;6.29;62.71
65666;BME280;52365;47.464;18.976;2024-03-25T01:03:18;98776.84;;;6.23;62.95
65666;BME280;52365;47.464;18.976;2024-03-25T01:03:39;98776.41;;;6.24;63.03
65666;BME280;52365;47.464;18.976;2024-03-25T01:04:00;98782.63;;;6.21;63.10
65666;BME280;52365;47.464;18.976;2024-03-25T01:04:21;98783.81;;;6.29;63.07
65666;BME280;52365;47.464;18.976;2024-03-25T01:04:42;98773.41;;;6.22;63.10
65666;BME280;52365;47.464;18.976;2024-03-25T01:05:04;98779.09;;;6.15;63.26
65666;BME280;52365;47.464;18.976;2024-03-25T01:05:25;98782.63;;;6.21;63.20
65666;BME280;52365;47.464;18.976;2024-03-25T01:05:46;98783.22;;;6.25;63.08
65666;BME280;52365;47.464;18.976;2024-03-25T01:06:07;98775.94;;;6.26;63.01
65666;BME280;52365;47.464;18.976;2024-03-25T01:06:23;98779.81;;;6.25;62.95
65666;BME280;52365;47.464;18.976;2024-03-25T01:06:44;98777.28;;;6.21;63.02
65666;BME280;52365;47.464;18.976;2024-03-25T01:07:05;98774.03;;;6.17;63.12
65666;BME280;52365;47.464;18.976;2024-03-25T01:07:21;98783.66;;;6.05;63.33
65666;BME280;52365;47.464;18.976;2024-03-25T01:07:42;98777.44;;;6.09;63.42
65666;BME280;52365;47.464;18.976;2024-03-25T01:08:04;98780.84;;;6.00;63.63
65666;BME280;52365;47.464;18.976;2024-03-25T01:08:25;98784.59;;;6.02;63.64
65666;BME280;52365;47.464;18.976;2024-03-25T01:08:46;98779.97;;;6.03;63.66
65666;BME280;52365;47.464;18.976;2024-03-25T01:09:06;98777.91;;;6.07;63.72
65666;BME280;52365;47.464;18.976;2024-03-25T01:09:28;98773.75;;;6.06;63.64
65666;BME280;52365;47.464;18.976;2024-03-25T01:09:50;98778.50;;;6.02;63.75
65666;BME280;52365;47.464;18.976;2024-03-25T01:10:11;98772.22;;;6.14;63.61
65666;BME280;52365;47.464;18.976;2024-03-25T01:10:32;98771.34;;;6.17;63.45
65666;BME280;52365;47.464;18.976;2024-03-25T01:10:53;98770.75;;;6.13;63.38
65666;BME280;52365;47.464;18.976;2024-03-25T01:11:14;98773.00;;;6.15;63.33
65666;BME280;52365;47.464;18.976;2024-03-25T01:11:35;98770.91;;;6.10;63.35
65666;BME280;52365;47.464;18.976;2024-03-25T01:11:56;98774.47;;;6.07;63.52
65666;BME280;52365;47.464;18.976;2024-03-25T01:12:16;98761.84;;;6.07;63.49
65666;BME280;52365;47.464;18.976;2024-03-25T01:12:37;98770.16;;;6.09;63.45
65666;BME280;52365;47.464;18.976;2024-03-25T01:12:58;98773.28;;;6.08;63.48
65666;BME280;52365;47.464;18.976;2024-03-25T01:13:19;98766.28;;;6.10;63.44
65666;BME280;52365;47.464;18.976;2024-03-25T01:13:40;98767.78;;;6.11;63.47
65666;BME280;52365;47.464;18.976;2024-03-25T01:14:02;98774.91;;;5.96;63.63
65666;BME280;52365;47.464;18.976;2024-03-25T01:14:23;98777.31;;;6.03;63.68
65666;BME280;52365;47.464;18.976;2024-03-25T01:14:39;98767.78;;;6.02;63.65
65666;BME280;52365;47.464;18.976;2024-03-25T01:14:59;98762.28;;;5.96;63.68
65666;BME280;52365;47.464;18.976;2024-03-25T01:15:20;98767.06;;;6.01;63.65
65666;BME280;52365;47.464;18.976;2024-03-25T01:15:43;98771.81;;;6.07;63.52
65666;BME280;52365;47.464;18.976;2024-03-25T01:16:04;98766.16;;;5.95;63.66
65666;BME280;52365;47.464;18.976;2024-03-25T01:16:25;98767.16;;;5.89;63.92
65666;BME280;52365;47.464;18.976;2024-03-25T01:16:41;98776.84;;;5.95;63.85
65666;BME280;52365;47.464;18.976;2024-03-25T01:17:03;98771.94;;;6.03;63.78
65666;BME280;52365;47.464;18.976;2024-03-25T01:17:24;98767.47;;;6.09;63.73
65666;BME280;52365;47.464;18.976;2024-03-25T01:17:45;98772.53;;;6.07;63.59
65666;BME280;52365;47.464;18.976;2024-03-25T01:18:06;98768.06;;;6.13;63.38
65666;BME280;52365;47.464;18.976;2024-03-25T01:18:27;98768.38;;;6.15;63.30
65666;BME280;52365;47.464;18.976;2024-03-25T01:18:48;98771.47;;;6.23;63.13
65666;BME280;52365;47.464;18.976;2024-03-25T01:19:09;98769.88;;;6.16;63.06
65666;BME280;52365;47.464;18.976;2024-03-25T01:19:30;98765.13;;;6.11;63.16
65666;BME280;52365;47.464;18.976;2024-03-25T01:19:51;98775.66;;;6.15;63.29
65666;BME280;52365;47.464;18.976;2024-03-25T01:20:07;98774.31;;;6.19;63.15
65666;BME280;52365;47.464;18.976;2024-03-25T01:20:29;98767.06;;;6.11;63.03
65666;BME280;52365;47.464;18.976;2024-03-25T01:20:50;98763.34;;;5.99;63.26
65666;BME280;52365;47.464;18.976;2024-03-25T01:21:11;98772.38;;;5.92;63.51
65666;BME280;52365;47.464;18.976;2024-03-25T01:21:32;98763.78;;;6.07;63.39
65666;BME280;52365;47.464;18.976;2024-03-25T01:21:53;98771.34;;;6.08;63.31
65666;BME280;52365;47.464;18.976;2024-03-25T01:22:14;98772.22;;;6.14;63.19
65666;BME280;52365;47.464;18.976;2024-03-25T01:22:35;98765.41;;;6.13;63.12
65666;BME280;52365;47.464;18.976;2024-03-25T01:22:56;98761.84;;;6.07;63.26
65666;BME280;52365;47.464;18.976;2024-03-25T01:23:17;98762.72;;;6.13;63.23
65666;BME280;52365;47.464;18.976;2024-03-25T01:23:38;98766.59;;;6.21;62.97
65666;BME280;52365;47.464;18.976;2024-03-25T01:23:58;98770.59;;;6.26;62.80
65666;BME280;52365;47.464;18.976;2024-03-25T01:24:19;98770.00;;;6.22;62.76
65666;BME280;52365;47.464;18.976;2024-03-25T01:24:40;98766.91;;;6.23;62.85
65666;BME280;52365;47.464;18.976;2024-03-25T01:24:57;98764.97;;;6.24;62.81
65666;BME280;52365;47.464;18.976;2024-03-25T01:25:13;98759.63;;;6.15;62.88
65666;BME280;52365;47.464;18.976;2024-03-25T01:25:34;98766.44;;;6.25;62.81
65666;BME280;52365;47.464;18.976;2024-03-25T01:25:55;98765.69;;;6.24;62.66
65666;BME280;52365;47.464;18.976;2024-03-25T01:26:16;98761.25;;;6.21;62.61
65666;BME280;52365;47.464;18.976;2024-03-25T01:26:32;98757.97;;;6.08;62.81
65666;BME280;52365;47.464;18.976;2024-03-25T01:26:53;98772.41;;;6.01;62.98
65666;BME280;52365;47.464;18.976;2024-03-25T01:27:14;98760.34;;;5.97;63.13
65666;BME280;52365;47.464;18.976;2024-03-25T01:27:35;98752.91;;;5.92;63.33
65666;BME280;52365;47.464;18.976;2024-03-25T01:27:56;98753.50;;;5.96;63.36
65666;BME280;52365;47.464;18.976;2024-03-25T01:28:18;98763.34;;;5.99;63.41
65666;BME280;52365;47.464;18.976;2024-03-25T01:28:39;98766.13;;;6.14;63.28
65666;BME280;52365;47.464;18.976;2024-03-25T01:29:00;98757.50;;;6.19;62.94
65666;BME280;52365;47.464;18.976;2024-03-25T01:29:21;98756.94;;;6.15;62.89
65666;BME280;52365;47.464;18.976;2024-03-25T01:29:42;98757.38;;;6.04;63.03
65666;BME280;52365;47.464;18.976;2024-03-25T01:30:03;98763.47;;;6.04;63.15
65666;BME280;52365;47.464;18.976;2024-03-25T01:30:19;98770.00;;;6.03;63.21
65666;BME280;52365;47.464;18.976;2024-03-25T01:30:40;98757.53;;;6.10;63.09
65666;BME280;52365;47.464;18.976;2024-03-25T01:31:01;98762.44;;;6.11;63.03
65666;BME280;52365;47.464;18.976;2024-03-25T01:31:18;98761.84;;;6.16;63.00
65666;BME280;52365;47.464;18.976;2024-03-25T01:31:40;98761.97;;;6.22;62.86
65666;BME280;52365;47.464;18.976;2024-03-25T01:32:01;98763.91;;;6.30;62.70
65666;BME280;52365;47.464;18.976;2024-03-25T01:32:23;98757.63;;;6.43;62.37
65666;BME280;52365;47.464;18.976;2024-03-25T01:32:44;98761.78;;;6.44;62.02
65666;BME280;52365;47.464;18.976;2024-03-25T01:33:08;98763.12;;;6.48;61.80
65666;BME280;52365;47.464;18.976;2024-03-25T01:33:29;98763.31;;;6.26;62.18
65666;BME280;52365;47.464;18.976;2024-03-25T01:33:50;98755.25;;;6.36;62.14
65666;BME280;52365;47.464;18.976;2024-03-25T01:34:11;98765.66;;;6.43;61.95
65666;BME280;52365;47.464;18.976;2024-03-25T01:34:32;98759.72;;;6.39;62.01
65666;BME280;52365;47.464;18.976;2024-03-25T01:34:53;98755.25;;;6.36;61.97
65666;BME280;52365;47.464;18.976;2024-03-25T01:35:14;98762.53;;;6.44;61.93
65666;BME280;52365;47.464;18.976;2024-03-25T01:35:38;98755.56;;;6.47;61.75
65666;BME280;52365;47.464;18.976;2024-03-25T01:35:59;98758.22;;;6.47;61.64
65666;BME280;52365;47.464;18.976;2024-03-25T01:36:20;98761.78;;;6.44;61.67
65666;BME280;52365;47.464;18.976;2024-03-25T01:36:41;98754.34;;;6.48;61.73
65666;BME280;52365;47.464;18.976;2024-03-25T01:37:03;98758.37;;;6.52;61.68
65666;BME280;52365;47.464;18.976;2024-03-25T01:37:24;98757.94;;;6.45;61.62
65666;BME280;52365;47.464;18.976;2024-03-25T01:37:45;98756.19;;;6.33;61.79
65666;BME280;52365;47.464;18.976;2024-03-25T01:38:06;98756.59;;;6.31;61.98
65666;BME280;52365;47.464;18.976;2024-03-25T01:38:27;98759.16;;;6.16;62.30
65666;BME280;52365;47.464;18.976;2024-03-25T01:38:49;98760.06;;;6.13;62.52
65666;BME280;52365;47.464;18.976;2024-03-25T01:39:10;98757.69;;;6.15;62.58
65666;BME280;52365;47.464;18.976;2024-03-25T01:39:32;98752.47;;;6.30;62.57
65666;BME280;52365;47.464;18.976;2024-03-25T01:39:53;98760.31;;;6.43;62.21
65666;BME280;52365;47.464;18.976;2024-03-25T01:40:14;98759.59;;;6.42;61.93
65666;BME280;52365;47.464;18.976;2024-03-25T01:40:35;98758.84;;;6.42;61.80
65666;BME280;52365;47.464;18.976;2024-03-25T01:41:07;98760.47;;;6.30;61.81
65666;BME280;52365;47.464;18.976;2024-03-25T01:41:28;98757.38;;;6.04;62.47
65666;BME280;52365;47.464;18.976;2024-03-25T01:41:50;98760.19;;;6.19;62.46
65666;BME280;52365;47.464;18.976;2024-03-25T01:42:11;98760.75;;;6.32;62.20
65666;BME280;52365;47.464;18.976;2024-03-25T01:42:31;98754.38;;;6.39;62.02
65666;BME280;52365;47.464;18.976;2024-03-25T01:42:59;98752.16;;;6.37;61.80
65666;BME280;52365;47.464;18.976;2024-03-25T01:43:16;98759.72;;;6.39;61.82
65666;BME280;52365;47.464;18.976;2024-03-25T01:43:37;98749.63;;;6.34;61.87
65666;BME280;52365;47.464;18.976;2024-03-25T01:43:58;98762.56;;;6.26;61.87
65666;BME280;52365;47.464;18.976;2024-03-25T01:44:19;98758.87;;;6.23;61.94
65666;BME280;52365;47.464;18.976;2024-03-25T01:44:40;98749.78;;;6.21;62.12
65666;BME280;52365;47.464;18.976;2024-03-25T01:45:01;98750.06;;;6.41;61.89
65666;BME280;52365;47.464;18.976;2024-03-25T01:45:25;98755.84;;;6.40;61.70
65666;BME280;52365;47.464;18.976;2024-03-25T01:45:46;98749.31;;;6.50;61.54
65666;BME280;52365;47.464;18.976;2024-03-25T01:46:07;98747.03;;;6.57;61.33
65666;BME280;52365;47.464;18.976;2024-03-25T01:46:28;98752.28;;;6.52;61.46
65666;BME280;52365;47.464;18.976;2024-03-25T01:46:50;98756.72;;;6.55;61.38
65666;BME280;52365;47.464;18.976;2024-03-25T01:47:13;98761.16;;;6.58;61.20
65666;BME280;52365;47.464;18.976;2024-03-25T01:47:34;98750.78;;;6.60;61.08
65666;BME280;52365;47.464;18.976;2024-03-25T01:47:57;98754.62;;;6.68;60.92
65666;BME280;52365;47.464;18.976;2024-03-25T01:48:19;98748.69;;;6.64;60.75
65666;BME280;52365;47.464;18.976;2024-03-25T01:48:40;98753.75;;;6.53;60.91
65666;BME280;52365;47.464;18.976;2024-03-25T01:49:01;98749.75;;;6.48;61.15
65666;BME280;52365;47.464;18.976;2024-03-25T01:49:22;98750.50;;;6.40;61.35
65666;BME280;52365;47.464;18.976;2024-03-25T01:49:43;98755.84;;;6.40;61.43
65666;BME280;52365;47.464;18.976;2024-03-25T01:50:05;98748.59;;;6.31;61.61
65666;BME280;52365;47.464;18.976;2024-03-25T01:50:27;98750.53;;;6.30;61.92
65666;BME280;52365;47.464;18.976;2024-03-25T01:50:48;98745.47;;;6.33;61.86